Time;durP1;ratioP1;P1;durP2;ratioP2;P2;SDS_P1;SDS_P2;PMS_P1;PMS_P2;Temp;Humidity;BMP_temperature;BMP_pressure;BME280_temperature;BME280_humidity;BME280_pressure;Samples;Min_cycle;Max_cycle;Signal;HPM_P1;HPM_P2
2023/07/09 00:02:15;;;;;;;8.13;4.18;;;;;;;22.40;64.93;101615.28;6226121;28;20072;-75
2023/07/09 00:05:18;;;;;;;8.25;4.07;;;;;;;22.38;64.96;101629.78;6222467;28;20061;-75
2023/07/09 00:08:27;;;;;;;5.70;3.53;;;;;;;22.37;64.79;101622.75;6230094;28;20418;-75
2023/07/09 00:11:29;;;;;;;8.85;4.60;;;;;;;22.35;64.71;101628.25;6219857;28;20141;-77
2023/07/09 00:14:30;;;;;;;7.30;4.22;;;;;;;22.34;65.08;101637.25;6229976;28;20057;-77
2023/07/09 00:17:34;;;;;;;7.30;4.40;;;;;;;22.25;65.25;101632.69;6229766;28;20457;-77
2023/07/09 00:20:36;;;;;;;8.48;4.78;;;;;;;22.21;65.69;101636.63;6225908;28;20123;-77
2023/07/09 00:23:39;;;;;;;6.30;4.35;;;;;;;22.18;65.75;101632.41;6221376;28;20057;-77
2023/07/09 00:26:41;;;;;;;6.80;3.90;;;;;;;22.08;65.59;101627.97;6229887;28;20131;-77
2023/07/09 00:29:43;;;;;;;6.00;4.00;;;;;;;22.04;65.55;101632.75;6229716;28;20053;-77
2023/07/09 00:32:45;;;;;;;6.75;3.78;;;;;;;22.08;65.51;101627.97;6229622;28;20054;-77
2023/07/09 00:35:50;;;;;;;8.02;4.35;;;;;;;22.04;65.72;101636.28;6229508;28;20358;-77
2023/07/09 00:38:52;;;;;;;7.82;4.13;;;;;;;22.03;66.35;101625.72;6229720;28;20057;-77
2023/07/09 00:41:53;;;;;;;8.73;3.72;;;;;;;22.00;66.69;101632.16;6229120;28;20046;-77
2023/07/09 00:44:55;;;;;;;5.00;3.30;;;;;;;21.95;66.52;101630.88;6229664;28;20056;-77
2023/07/09 00:48:01;;;;;;;5.50;3.38;;;;;;;21.90;66.56;101628.59;6229168;28;20046;-77
2023/07/09 00:51:12;;;;;;;7.43;3.88;;;;;;;21.95;65.94;101629.03;6229401;28;20437;-77
2023/07/09 00:54:20;;;;;;;5.40;3.50;;;;;;;21.95;65.75;101629.03;6228411;28;20431;-77
2023/07/09 00:57:26;;;;;;;4.35;3.33;;;;;;;21.92;65.29;101626.63;6226727;28;20061;-77
2023/07/09 01:00:42;;;;;;;5.43;3.70;;;;;;;21.85;64.98;101630.84;6213839;28;20057;-77
2023/07/09 01:03:47;;;;;;;5.47;3.80;;;;;;;21.83;65.87;101626.59;6228860;28;20385;-77
2023/07/09 01:06:52;;;;;;;6.88;3.60;;;;;;;21.82;65.51;101624.91;6228709;28;20597;-77
2023/07/09 01:09:53;;;;;;;8.45;3.95;;;;;;;21.77;66.35;101634.16;6228935;28;20046;-77
2023/07/09 01:12:55;;;;;;;7.97;3.90;;;;;;;21.76;65.72;101631.63;6228501;28;20049;-77
2023/07/09 01:15:57;;;;;;;4.82;3.60;;;;;;;21.75;65.28;101635.28;6229013;28;20070;-77
2023/07/09 01:19:00;;;;;;;5.50;3.60;;;;;;;21.73;65.04;101631.91;6228436;28;20335;-77
2023/07/09 01:22:03;;;;;;;4.00;3.20;;;;;;;21.70;65.13;101627.63;6228180;28;20057;-77
2023/07/09 01:25:08;;;;;;;7.85;3.72;;;;;;;21.67;65.13;101635.09;6228331;28;20064;-77
2023/07/09 01:28:09;;;;;;;6.47;3.88;;;;;;;21.63;65.30;101621.13;6228078;28;20054;-77
2023/07/09 01:31:11;;;;;;;5.57;3.60;;;;;;;;;;6228496;28;20060;-77
2023/07/09 01:34:15;;;;;;;5.40;3.40;;;;;;;21.61;66.31;101624.91;6228136;28;20049;-77
2023/07/09 01:37:21;;;;;;;7.15;3.65;;;;;;;21.58;66.53;101625.19;6228211;28;20045;-77
2023/07/09 01:40:25;;;;;;;4.53;3.22;;;;;;;21.51;67.03;101617.69;6228360;28;20046;-77
2023/07/09 01:43:27;;;;;;;6.60;3.83;;;;;;;21.48;67.57;101612.63;6227799;28;20046;-77
2023/07/09 01:46:30;;;;;;;5.68;3.83;;;;;;;21.47;67.34;101629.63;6227860;28;20053;-77
2023/07/09 01:49:32;;;;;;;7.63;3.55;;;;;;;21.44;67.28;101624.56;6228021;28;20049;-77
2023/07/09 01:52:35;;;;;;;8.05;4.18;;;;;;;21.42;67.60;101625.66;6227477;28;20046;-77
2023/07/09 01:55:36;;;;;;;6.38;3.70;;;;;;;21.37;67.21;101626.03;6227682;28;20053;-75
2023/07/09 01:58:41;;;;;;;7.57;3.55;;;;;;;21.36;67.35;101624.34;6215807;28;20041;-75
2023/07/09 02:01:42;;;;;;;5.30;3.47;;;;;;;21.33;67.97;101607.72;6221511;28;20050;-77
2023/07/09 02:04:43;;;;;;;5.95;3.72;;;;;;;21.35;67.43;101617.31;6213034;28;20046;-77
2023/07/09 02:07:47;;;;;;;5.35;3.58;;;;;;;21.36;67.45;101610.13;6218066;28;20057;-77
2023/07/09 02:10:49;;;;;;;4.85;3.30;;;;;;;21.35;67.04;101609.28;6227433;28;20045;-77
2023/07/09 02:13:50;;;;;;;6.63;3.50;;;;;;;21.29;67.19;101607.09;6226888;28;20072;-77
2023/07/09 02:16:52;;;;;;;5.18;3.67;;;;;;;21.27;67.13;101614.41;6206640;28;20426;-77
2023/07/09 02:19:53;;;;;;;5.07;3.63;;;;;;;21.23;66.91;101618.31;6182858;28;20039;-77
2023/07/09 02:22:56;;;;;;;4.88;3.08;;;;;;;21.19;67.73;101612.38;6178007;28;20050;-77
2023/07/09 02:25:57;;;;;;;4.75;3.30;;;;;;;21.19;67.64;101603.50;6198082;28;20050;-75
2023/07/09 02:28:58;;;;;;;5.90;3.22;;;;;;;21.16;67.95;101614.44;6194293;28;20050;-75
2023/07/09 02:32:01;;;;;;;5.28;3.47;;;;;;;21.12;68.08;101618.34;6201972;28;20057;-75
2023/07/09 02:35:02;;;;;;;5.95;3.35;;;;;;;21.09;67.77;101611.47;6207793;28;20050;-75
2023/07/09 02:38:05;;;;;;;6.05;3.60;;;;;;;21.04;68.03;101613.66;6204969;28;20055;-75
2023/07/09 02:41:06;;;;;;;5.97;3.45;;;;;;;21.02;68.07;101607.59;6207944;28;20050;-75
2023/07/09 02:44:08;;;;;;;6.63;3.67;;;;;;;20.95;68.36;101617.97;6182379;28;20051;-75
2023/07/09 02:47:10;;;;;;;5.82;3.20;;;;;;;20.94;68.15;101616.25;6199773;28;20362;-75
2023/07/09 02:50:11;;;;;;;5.20;3.83;;;;;;;20.86;68.58;101621.41;6201848;28;20366;-75
2023/07/09 02:53:14;;;;;;;8.43;3.42;;;;;;;20.85;68.25;101624.16;6202038;28;20046;-75
2023/07/09 02:56:15;;;;;;;4.85;3.22;;;;;;;20.84;67.86;101617.13;6203376;28;20051;-75
2023/07/09 02:59:16;;;;;;;6.82;3.75;;;;;;;20.79;68.50;101617.53;6177481;28;20371;-75
2023/07/09 03:02:18;;;;;;;5.00;3.28;;;;;;;20.72;69.10;101616.34;6177556;28;20046;-75
2023/07/09 03:05:19;;;;;;;5.60;3.63;;;;;;;20.70;69.39;101616.44;6201642;28;20370;-75
2023/07/09 03:08:22;;;;;;;5.22;3.30;;;;;;;20.68;69.35;101622.91;6177323;28;20352;-75
2023/07/09 03:11:23;;;;;;;8.40;3.60;;;;;;;20.69;70.00;101612.09;6201281;28;20050;-75
2023/07/09 03:14:25;;;;;;;5.57;3.63;;;;;;;20.62;69.76;101615.38;6201539;28;20050;-75
2023/07/09 03:17:26;;;;;;;5.13;3.63;;;;;;;20.57;70.64;101613.09;6175745;28;20053;-75
2023/07/09 03:20:28;;;;;;;5.35;3.70;;;;;;;20.52;70.65;101624.16;6181900;28;20575;-75
2023/07/09 03:23:30;;;;;;;5.70;4.00;;;;;;;20.42;71.19;101627.66;6184853;28;20049;-75
2023/07/09 03:26:32;;;;;;;7.78;4.25;;;;;;;20.38;71.50;101632.41;6182463;28;20054;-75
2023/07/09 03:29:34;;;;;;;7.43;3.80;;;;;;;20.33;71.75;101631.06;6182205;28;20046;-75
2023/07/09 03:32:35;;;;;;;5.35;3.38;;;;;;;20.26;71.88;101631.59;6182796;28;20046;-75
2023/07/09 03:35:38;;;;;;;6.47;3.47;;;;;;;20.27;72.19;101643.09;6183227;28;20537;-74
2023/07/09 03:38:40;;;;;;;8.45;3.65;;;;;;;20.13;72.83;101638.88;6181148;28;20191;-72
2023/07/09 03:41:42;;;;;;;4.78;3.35;;;;;;;20.20;73.16;101642.72;6180171;28;20062;-74
2023/07/09 03:44:43;;;;;;;6.95;3.65;;;;;;;20.16;72.99;101635.09;6182104;28;20191;-74
2023/07/09 03:47:45;;;;;;;5.78;3.63;;;;;;;20.22;73.42;101639.97;6183830;28;20046;-74
2023/07/09 03:50:47;;;;;;;5.35;3.55;;;;;;;20.26;73.47;101631.59;6179537;28;20047;-75
2023/07/09 03:53:50;;;;;;;5.57;3.42;;;;;;;20.24;74.51;101633.50;6181730;28;20081;-75
2023/07/09 03:56:51;;;;;;;6.28;3.40;;;;;;;20.24;73.56;101630.00;6181007;28;20046;-75
2023/07/09 03:59:53;;;;;;;7.40;3.22;;;;;;;20.23;73.81;101634.47;6183075;28;20042;-76
2023/07/09 04:02:56;;;;;;;5.97;4.13;;;;;;;20.23;73.75;101633.63;6180038;28;20042;-75
2023/07/09 04:05:57;;;;;;;6.70;3.40;;;;;;;20.22;74.18;101635.47;6183745;28;20054;-77
2023/07/09 04:09:00;;;;;;;4.90;3.30;;;;;;;20.24;74.39;101643.34;6181088;28;20045;-74
2023/07/09 04:12:02;;;;;;;5.78;3.35;;;;;;;20.24;73.99;101640.66;6183000;28;20050;-74
2023/07/09 04:15:05;;;;;;;8.13;3.80;;;;;;;20.18;74.14;101643.84;6183559;28;20082;-74
2023/07/09 04:18:07;;;;;;;5.43;3.13;;;;;;;20.24;74.01;101638.00;6200686;28;20359;-74
2023/07/09 04:21:09;;;;;;;6.00;3.35;;;;;;;20.26;74.11;101638.75;6200793;28;20355;-74
2023/07/09 04:24:11;;;;;;;5.30;3.10;;;;;;;20.28;74.93;101642.13;6200516;28;20432;-74
2023/07/09 04:27:13;;;;;;;8.35;3.83;;;;;;;20.26;74.90;101638.75;6200832;28;20054;-74
2023/07/09 04:30:15;;;;;;;5.07;3.10;;;;;;;20.29;74.91;101627.78;6202485;28;20137;-74
2023/07/09 04:33:18;;;;;;;6.97;3.80;;;;;;;20.25;74.09;101629.84;6198863;28;20521;-74
2023/07/09 04:36:19;;;;;;;6.10;3.38;;;;;;;20.30;74.22;101633.97;6206218;28;20132;-74
2023/07/09 04:39:22;;;;;;;6.15;3.45;;;;;;;20.28;73.57;101634.13;6197014;28;20054;-74
2023/07/09 04:42:23;;;;;;;9.70;4.57;;;;;;;20.32;74.97;101630.22;6181078;28;20047;-74
2023/07/09 04:45:24;;;;;;;4.97;3.55;;;;;;;20.31;73.86;101631.22;6200566;28;20049;-74
2023/07/09 04:48:26;;;;;;;6.68;3.97;;;;;;;20.35;75.41;101629.13;6194286;28;20050;-74
2023/07/09 04:51:27;;;;;;;5.10;3.10;;;;;;;20.35;75.91;101631.78;6204371;28;20062;-74
2023/07/09 04:54:30;;;;;;;5.63;3.97;;;;;;;20.35;75.57;101637.13;6190635;28;20043;-74
2023/07/09 04:57:31;;;;;;;5.90;3.88;;;;;;;20.37;75.41;101630.72;6195430;28;20569;-74
2023/07/09 05:00:33;;;;;;;5.93;3.63;;;;;;;20.43;76.38;101630.19;6201251;28;20454;-74
2023/07/09 05:03:34;;;;;;;9.43;3.72;;;;;;;20.43;75.17;101634.69;6192632;28;20057;-74
2023/07/09 05:06:36;;;;;;;4.03;2.83;;;;;;;20.51;74.74;101638.47;6197440;28;20144;-74
2023/07/09 05:09:38;;;;;;;4.78;3.00;;;;;;;20.55;75.37;101632.91;6204467;28;20442;-74
2023/07/09 05:12:50;;;;;;;5.10;3.42;;;;;;;20.56;75.11;101637.25;6204036;28;20061;-74
2023/07/09 05:15:52;;;;;;;5.45;3.53;;;;;;;20.55;73.36;101633.75;6204224;28;20054;-74
2023/07/09 05:18:53;;;;;;;5.65;3.67;;;;;;;20.65;73.34;101628.50;6200626;28;20046;-74
2023/07/09 05:21:54;;;;;;;5.65;2.95;;;;;;;20.66;74.36;101632.84;6191229;28;20046;-74
2023/07/09 05:24:57;;;;;;;5.68;3.50;;;;;;;20.69;74.60;101627.28;6192235;28;20046;-74
2023/07/09 05:27:58;;;;;;;4.93;3.33;;;;;;;20.69;73.72;101633.47;6193200;28;20077;-74
2023/07/09 05:31:00;;;;;;;6.10;3.30;;;;;;;20.73;74.51;101642.91;6198733;28;20054;-74
2023/07/09 05:34:01;;;;;;;4.93;3.20;;;;;;;20.73;76.21;101639.41;6203625;28;20331;-74
2023/07/09 05:37:03;;;;;;;4.70;3.05;;;;;;;20.72;75.60;101638.56;6203585;28;20055;-74
2023/07/09 05:40:07;;;;;;;5.65;3.75;;;;;;;20.74;75.96;101636.59;6203364;28;20346;-74
2023/07/09 05:43:08;;;;;;;4.28;3.25;;;;;;;20.81;76.32;101633.44;6208592;28;20053;-74
2023/07/09 05:46:10;;;;;;;5.03;3.53;;;;;;;20.75;77.35;101638.28;6184547;28;20058;-74
2023/07/09 05:49:11;;;;;;;5.05;3.03;;;;;;;20.85;76.95;101643.75;6179169;28;20466;-74
2023/07/09 05:52:12;;;;;;;4.88;3.05;;;;;;;20.84;77.09;101634.00;6201025;28;20061;-74
2023/07/09 05:55:15;;;;;;;5.53;3.30;;;;;;;20.90;76.93;101638.03;6203109;28;20351;-74
2023/07/09 05:58:16;;;;;;;4.65;3.15;;;;;;;20.92;76.95;101644.91;6203083;28;20061;-74
2023/07/09 06:01:19;;;;;;;5.57;3.28;;;;;;;20.98;77.41;101651.56;6203189;28;20053;-74
2023/07/09 06:04:20;;;;;;;5.10;2.92;;;;;;;21.02;77.60;101658.38;6202638;28;20353;-74
2023/07/09 06:07:22;;;;;;;5.25;3.22;;;;;;;21.05;78.14;101649.25;6203022;28;20054;-74
2023/07/09 06:10:25;;;;;;;4.32;3.22;;;;;;;21.05;78.33;101646.59;6203491;28;20051;-74
2023/07/09 06:13:28;;;;;;;5.43;3.50;;;;;;;21.13;77.71;101646.81;6202133;28;20363;-74
2023/07/09 06:16:29;;;;;;;7.53;3.30;;;;;;;21.15;77.26;101647.50;6197940;28;20053;-74
2023/07/09 06:19:31;;;;;;;4.38;3.10;;;;;;;21.22;77.81;101648.69;6202546;28;20050;-74
2023/07/09 06:22:32;;;;;;;4.78;3.45;;;;;;;21.20;78.30;101640.78;6177691;28;20058;-74
2023/07/09 06:25:38;;;;;;;4.90;2.83;;;;;;;21.25;77.68;101645.75;6194963;28;20081;-74
2023/07/09 06:28:40;;;;;;;5.22;3.08;;;;;;;21.35;77.63;101638.72;6202412;28;20050;-74
2023/07/09 06:31:42;;;;;;;4.07;2.75;;;;;;;21.37;78.10;101643.91;6199791;28;20050;-74
2023/07/09 06:34:43;;;;;;;5.03;3.45;;;;;;;21.40;79.63;101647.19;6186157;28;20619;-74
2023/07/09 06:37:45;;;;;;;5.75;3.10;;;;;;;21.44;78.78;101642.44;6188137;28;20054;-74
2023/07/09 06:40:48;;;;;;;5.45;3.40;;;;;;;21.44;78.65;101642.44;6194136;28;20058;-74
2023/07/09 06:43:49;;;;;;;4.47;3.08;;;;;;;21.50;78.69;101645.41;6190644;28;20050;-74
2023/07/09 06:46:50;;;;;;;3.40;2.83;;;;;;;21.51;78.56;101648.94;6194038;28;20061;-76
2023/07/09 06:49:51;;;;;;;4.65;3.40;;;;;;;21.51;78.65;101647.09;6201987;28;20042;-76
2023/07/09 06:52:53;;;;;;;4.40;3.13;;;;;;;21.57;78.69;101645.72;6200768;28;20050;-76
2023/07/09 06:55:58;;;;;;;4.63;3.13;;;;;;;21.64;78.51;101651.41;6201315;28;20053;-76
2023/07/09 06:59:00;;;;;;;5.45;3.15;;;;;;;21.68;79.55;101655.53;6201159;28;20137;-76
2023/07/09 07:02:01;;;;;;;5.78;3.60;;;;;;;21.74;79.22;101657.66;6200035;28;20073;-76
2023/07/09 07:05:03;;;;;;;13.10;8.10;;;;;;;21.82;79.30;101657.00;6200898;28;20065;-77
2023/07/09 07:08:06;;;;;;;10.32;6.13;;;;;;;21.85;78.88;101659.44;6200711;28;20481;-76
2023/07/09 07:11:09;;;;;;;5.57;3.90;;;;;;;21.89;79.32;101655.47;6199926;28;20073;-76
2023/07/09 07:14:10;;;;;;;5.43;3.78;;;;;;;21.93;79.48;101651.56;6201529;28;20054;-76
2023/07/09 07:17:11;;;;;;;6.05;3.20;;;;;;;22.02;79.58;101656.97;6195797;28;20069;-76
2023/07/09 07:20:15;;;;;;;4.65;3.40;;;;;;;22.08;79.73;101658.28;6191257;28;20046;-76
2023/07/09 07:23:16;;;;;;;5.15;3.78;;;;;;;22.16;80.08;101654.94;6201088;28;20336;-76
2023/07/09 07:26:19;;;;;;;5.53;3.17;;;;;;;22.28;78.65;101649.34;6196752;28;20046;-76
2023/07/09 07:29:20;;;;;;;5.28;3.33;;;;;;;22.32;77.97;101657.97;6192825;28;20046;-76
2023/07/09 07:32:21;;;;;;;5.90;3.13;;;;;;;22.34;77.15;101653.31;6189326;28;20051;-76
2023/07/09 07:35:23;;;;;;;5.82;3.88;;;;;;;22.37;75.99;101661.09;6200433;28;20046;-76
2023/07/09 07:38:24;;;;;;;8.57;5.03;;;;;;;22.43;75.73;101657.00;6201128;28;20050;-76
2023/07/09 07:41:27;;;;;;;6.30;4.13;;;;;;;22.47;75.70;101653.06;6201288;28;20046;-76
2023/07/09 07:44:28;;;;;;;8.70;3.65;;;;;;;22.61;74.08;101654.50;6201017;28;20058;-76
2023/07/09 07:47:30;;;;;;;6.20;3.20;;;;;;;22.72;71.80;101649.88;6200499;28;20042;-74
2023/07/09 07:50:31;;;;;;;8.75;3.65;;;;;;;22.81;73.34;101658.09;6185253;28;20560;-75
2023/07/09 07:53:33;;;;;;;8.73;3.72;;;;;;;22.93;73.70;101656.97;6206018;28;20470;-75
2023/07/09 07:56:35;;;;;;;7.75;3.45;;;;;;;22.96;74.13;101652.19;6194183;28;20046;-75
2023/07/09 07:59:37;;;;;;;6.30;3.63;;;;;;;22.99;73.42;101653.75;6187728;28;20057;-75
2023/07/09 08:02:38;;;;;;;7.38;3.40;;;;;;;23.07;72.49;101653.03;6193163;28;20054;-75
2023/07/09 08:05:40;;;;;;;5.05;3.47;;;;;;;23.09;73.98;101651.06;6204353;28;20096;-75
2023/07/09 08:08:41;;;;;;;5.78;3.30;;;;;;;23.15;71.07;101647.81;6196802;28;20481;-75
2023/07/09 08:11:44;;;;;;;5.47;3.38;;;;;;;23.20;71.56;101651.75;6188790;28;20047;-75
2023/07/09 08:14:46;;;;;;;4.45;3.13;;;;;;;23.23;72.33;101646.13;6207548;28;20185;-75
2023/07/09 08:17:47;;;;;;;5.63;3.72;;;;;;;23.30;72.59;101646.41;6203171;28;20058;-75
2023/07/09 08:20:49;;;;;;;6.18;3.45;;;;;;;23.34;72.66;101642.44;6191642;28;20042;-75
2023/07/09 08:23:50;;;;;;;7.53;3.50;;;;;;;23.49;70.46;101635.66;6204954;28;20386;-75
2023/07/09 08:26:53;;;;;;;5.00;3.30;;;;;;;23.56;72.38;101641.28;6205332;28;20050;-75
2023/07/09 08:29:54;;;;;;;4.85;3.45;;;;;;;23.69;72.35;101641.84;6201351;28;20347;-75
2023/07/09 08:32:57;;;;;;;5.15;3.55;;;;;;;23.69;74.35;101646.38;6200441;28;20047;-75
2023/07/09 08:35:58;;;;;;;9.38;3.25;;;;;;;23.74;74.39;101644.09;6192311;28;20054;-75
2023/07/09 08:39:02;;;;;;;5.35;3.22;;;;;;;23.83;73.17;101650.44;6193283;28;20066;-75
2023/07/09 08:42:08;;;;;;;7.38;3.92;;;;;;;23.88;72.82;101640.09;6191458;28;20174;-75
2023/07/09 08:45:21;;;;;;;5.10;3.10;;;;;;;23.94;73.00;101647.56;6201658;28;20047;-75
2023/07/09 08:48:30;;;;;;;5.78;3.67;;;;;;;24.07;73.64;101642.69;6204843;28;20054;-75
2023/07/09 08:51:35;;;;;;;;;;;;;;;23.91;73.62;101640.66;6205200;28;20042;-75
2023/07/09 08:54:38;;;;;;;5.28;3.25;;;;;;;23.95;72.96;101634.00;6204484;28;20318;-75
2023/07/09 08:57:44;;;;;;;5.72;2.97;;;;;;;24.12;71.76;101635.06;6196616;28;20065;-75
2023/07/09 09:00:53;;;;;;;4.95;3.30;;;;;;;24.30;70.52;101627.06;6186727;28;20051;-75
2023/07/09 09:04:01;;;;;;;5.25;3.15;;;;;;;24.35;71.26;101629.28;6201944;28;20138;-75
2023/07/09 09:07:15;;;;;;;7.03;3.33;;;;;;;24.42;71.74;101633.94;6204356;28;20061;-76
2023/07/09 09:10:20;;;;;;;4.20;2.90;;;;;;;24.45;71.46;101632.78;6194803;28;20046;-74
2023/07/09 09:13:28;;;;;;;6.53;3.35;;;;;;;24.52;70.48;101628.50;6190049;28;20061;-74
2023/07/09 09:16:35;;;;;;;5.30;3.30;;;;;;;24.60;67.36;101633.13;6189773;28;20077;-75
2023/07/09 09:19:43;;;;;;;6.35;3.03;;;;;;;24.64;67.96;101635.34;6190147;28;20053;-74
2023/07/09 09:22:49;;;;;;;5.68;3.05;;;;;;;24.82;65.18;101632.69;6196206;28;20057;-75
2023/07/09 09:25:53;;;;;;;4.57;3.08;;;;;;;24.83;66.45;101636.22;6200448;28;20046;-75
2023/07/09 09:28:56;;;;;;;4.85;3.10;;;;;;;25.10;64.98;101624.56;6195666;28;20079;-75
2023/07/09 09:32:00;;;;;;;5.43;3.10;;;;;;;25.09;66.91;101622.88;6187149;28;20054;-75
2023/07/09 09:35:13;;;;;;;4.75;3.10;;;;;;;25.14;65.99;101621.41;6195016;28;20073;-75
2023/07/09 09:38:17;;;;;;;4.03;2.90;;;;;;;25.15;66.82;101620.38;6190282;28;20050;-75
2023/07/09 09:41:21;;;;;;;5.72;3.13;;;;;;;25.26;66.35;101627.38;6179225;28;20055;-75
2023/07/09 09:44:27;;;;;;;4.00;2.70;;;;;;;25.32;66.71;101625.91;6201852;28;20060;-75
2023/07/09 09:47:28;;;;;;;4.85;3.03;;;;;;;25.41;64.01;101619.59;6196332;28;20050;-75
2023/07/09 09:50:33;;;;;;;3.65;2.78;;;;;;;25.48;60.64;101623.31;6203472;28;20050;-76
2023/07/09 09:53:39;;;;;;;5.30;3.05;;;;;;;25.53;62.73;101621.03;6202887;28;20055;-76
2023/07/09 09:56:43;;;;;;;5.00;3.22;;;;;;;25.78;62.31;101622.03;6202099;28;20108;-75
2023/07/09 09:59:47;;;;;;;5.68;3.00;;;;;;;25.98;59.83;101619.94;6199512;28;20054;-76
2023/07/09 10:02:49;;;;;;;6.20;3.80;;;;;;;25.98;60.31;101622.63;6198885;28;20177;-74
2023/07/09 10:05:53;;;;;;;5.30;3.55;;;;;;;25.96;60.93;101619.28;6199477;28;20054;-76
2023/07/09 10:09:02;;;;;;;5.95;3.50;;;;;;;25.96;60.88;101625.50;6202654;28;20057;-75
2023/07/09 10:12:14;;;;;;;4.10;2.75;;;;;;;26.06;59.78;101618.13;6206265;28;20061;-75
2023/07/09 10:15:28;;;;;;;7.10;3.42;;;;;;;26.19;59.75;101625.75;6218959;28;20335;-75
2023/07/09 10:18:40;;;;;;;4.68;3.00;;;;;;;26.41;59.47;101620.78;6227075;28;20046;-75
2023/07/09 10:21:46;;;;;;;4.82;2.83;;;;;;;26.44;59.47;101617.81;6203090;28;20051;-74
2023/07/09 10:24:57;;;;;;;5.03;3.17;;;;;;;26.50;60.05;101620.69;6201358;28;20366;-74
2023/07/09 10:28:08;;;;;;;5.13;3.10;;;;;;;26.61;57.18;101619.50;6212803;28;20077;-74
2023/07/09 10:31:18;;;;;;;5.90;3.40;;;;;;;26.69;57.99;101621.38;6204295;28;20050;-75
2023/07/09 10:34:30;;;;;;;5.32;3.33;;;;;;;26.72;60.19;101621.06;6205417;28;20054;-75
2023/07/09 10:37:53;;;;;;;3.92;2.80;;;;;;;26.91;54.35;101618.03;6208246;28;20054;-69
2023/07/09 10:40:58;;;;;;;8.15;3.30;;;;;;;26.93;55.36;101615.16;6180411;28;20047;-68
2023/07/09 10:44:05;;;;;;;5.25;2.92;;;;;;;27.11;56.72;101610.47;6213194;28;20057;-69
2023/07/09 10:47:26;;;;;;;5.18;3.30;;;;;;;27.27;55.22;101613.19;6226643;28;20053;-69
2023/07/09 10:50:32;;;;;;;6.88;2.95;;;;;;;27.36;56.00;101614.03;6194542;28;20401;-69
2023/07/09 10:53:40;;;;;;;5.45;2.97;;;;;;;27.47;55.13;101613.66;6195755;28;20054;-69
2023/07/09 10:56:43;;;;;;;6.65;3.58;;;;;;;27.54;54.07;101605.72;6197289;28;20434;-69
2023/07/09 10:59:49;;;;;;;4.82;3.05;;;;;;;27.58;54.34;101609.78;6211015;28;20353;-69
2023/07/09 11:03:01;;;;;;;4.63;3.13;;;;;;;27.64;54.28;101614.47;6207486;28;20053;-69
2023/07/09 11:06:04;;;;;;;4.65;3.00;;;;;;;27.70;56.25;101611.06;6217921;28;20046;-69
2023/07/09 11:09:15;;;;;;;5.38;2.97;;;;;;;27.94;51.40;101606.66;6211508;28;20144;-69
2023/07/09 11:12:25;;;;;;;5.30;2.75;;;;;;;28.10;51.97;101613.84;6204362;28;20050;-69
2023/07/09 11:15:36;;;;;;;5.90;3.15;;;;;;;28.25;53.70;101612.06;6203951;28;20052;-69
2023/07/09 11:18:38;;;;;;;4.78;3.03;;;;;;;28.37;51.57;101609.84;6192075;28;20050;-69
2023/07/09 11:21:46;;;;;;;6.75;3.35;;;;;;;28.41;50.29;101609.31;6205844;28;20358;-69
2023/07/09 11:24:50;;;;;;;5.28;3.17;;;;;;;28.67;50.14;101600.03;6202642;28;20455;-69
2023/07/09 11:27:55;;;;;;;4.50;3.05;;;;;;;28.93;49.09;101599.66;6210470;28;20104;-69
2023/07/09 11:31:06;;;;;;;4.78;3.05;;;;;;;28.88;50.86;101591.25;6210024;28;20105;-69
2023/07/09 11:34:17;;;;;;;5.57;3.03;;;;;;;28.90;49.00;101595.47;6211667;28;20047;-69
2023/07/09 11:37:19;;;;;;;4.97;3.33;;;;;;;29.16;48.48;101586.13;6223533;28;20050;-69
2023/07/09 11:40:22;;;;;;;6.35;3.15;;;;;;;29.53;44.40;101580.69;6230690;28;20446;-69
2023/07/09 11:43:29;;;;;;;5.13;3.30;;;;;;;29.72;44.46;101568.47;6230510;28;20058;-67
2023/07/09 11:46:32;;;;;;;7.43;2.78;;;;;;;29.93;45.12;101566.84;6220033;28;20054;-69
2023/07/09 11:49:43;;;;;;;5.82;3.15;;;;;;;30.12;43.80;101560.00;6216589;28;20370;-69
2023/07/09 11:52:48;;;;;;;7.07;3.92;;;;;;;30.27;46.15;101567.09;6191251;28;20043;-69
2023/07/09 11:55:50;;;;;;;6.57;3.10;;;;;;;30.38;42.97;101564.91;6195572;28;20434;-69
2023/07/09 11:58:53;;;;;;;4.28;2.80;;;;;;;30.47;44.32;101566.47;6197250;28;20050;-69
2023/07/09 12:01:56;;;;;;;4.55;2.85;;;;;;;30.52;43.81;101564.00;6194008;28;20051;-69
2023/07/09 12:04:59;;;;;;;5.85;3.10;;;;;;;30.63;43.38;101559.97;6204806;28;20457;-69
2023/07/09 12:08:01;;;;;;;2.80;2.20;;;;;;;30.75;44.31;101555.69;6206336;28;20052;-69
2023/07/09 12:11:03;;;;;;;4.25;3.10;;;;;;;31.00;42.21;101556.97;6217240;28;20408;-69
2023/07/09 12:14:05;;;;;;;5.03;3.10;;;;;;;31.11;42.56;101554.75;6215476;28;20057;-69
2023/07/09 12:17:10;;;;;;;5.45;3.17;;;;;;;31.05;43.79;101542.81;6216358;28;20385;-69
2023/07/09 12:20:14;;;;;;;5.30;3.17;;;;;;;31.39;41.47;101546.63;6211682;28;20042;-70
2023/07/09 12:23:22;;;;;;;4.90;3.13;;;;;;;31.70;39.87;101547.00;6201018;28;20068;-69
2023/07/09 12:26:24;;;;;;;4.53;2.92;;;;;;;31.66;40.91;101539.44;6202086;28;20351;-69
2023/07/09 12:29:26;;;;;;;4.78;2.67;;;;;;;31.57;43.07;101542.34;6201412;28;20053;-69
2023/07/09 12:32:28;;;;;;;5.15;3.58;;;;;;;31.57;42.99;101544.22;6199187;28;20058;-69
2023/07/09 12:35:31;;;;;;;7.28;2.78;;;;;;;31.71;36.67;101542.41;6202080;28;20443;-69
2023/07/09 12:38:41;;;;;;;6.00;2.88;;;;;;;31.73;39.43;101543.88;6202844;28;20054;-69
2023/07/09 12:41:43;;;;;;;5.30;3.42;;;;;;;31.75;42.94;101538.22;6198221;28;20058;-69
2023/07/09 12:44:48;;;;;;;4.57;2.95;;;;;;;31.94;38.51;101539.41;6211812;28;20350;-69
2023/07/09 12:47:50;;;;;;;3.80;2.75;;;;;;;32.03;41.78;101532.75;6210395;28;20057;-69
2023/07/09 12:50:56;;;;;;;5.18;3.00;;;;;;;32.01;43.80;101532.94;6217144;28;20100;-69
2023/07/09 12:54:03;;;;;;;5.72;3.00;;;;;;;32.17;41.08;101522.75;6215404;28;20046;-69
2023/07/09 12:57:17;;;;;;;4.22;2.45;;;;;;;32.24;41.88;101527.13;6217265;28;20046;-69
2023/07/09 13:00:19;;;;;;;7.72;3.15;;;;;;;32.25;41.18;101530.69;6216193;28;20160;-69
2023/07/09 13:03:22;;;;;;;4.15;2.40;;;;;;;32.38;39.26;101525.31;6226354;28;20506;-69
2023/07/09 13:06:29;;;;;;;5.40;2.80;;;;;;;32.55;36.79;101515.72;6225076;28;20049;-69
2023/07/09 13:09:30;;;;;;;5.00;2.83;;;;;;;32.78;33.63;101512.56;6217713;28;20054;-69
2023/07/09 13:12:33;;;;;;;3.58;2.60;;;;;;;33.03;36.46;101498.34;6219269;28;20324;-69
2023/07/09 13:15:42;;;;;;;4.90;2.83;;;;;;;33.08;37.01;101493.94;6220097;28;20138;-69
2023/07/09 13:18:43;;;;;;;5.10;2.97;;;;;;;33.00;34.21;101482.41;6204537;28;20049;-69
2023/07/09 13:21:46;;;;;;;6.50;2.80;;;;;;;32.97;37.38;101480.94;6203809;28;20042;-69
2023/07/09 13:24:48;;;;;;;4.47;2.85;;;;;;;32.95;36.95;101474.06;6204299;28;20061;-69
2023/07/09 13:27:49;;;;;;;4.45;2.83;;;;;;;32.91;36.39;101479.06;6213237;28;20043;-69
2023/07/09 13:30:52;;;;;;;4.68;2.50;;;;;;;33.03;35.04;101479.28;6227716;28;20073;-69
2023/07/09 13:33:57;;;;;;;4.47;2.40;;;;;;;32.93;36.86;101473.41;6227873;28;20601;-69
2023/07/09 13:37:00;;;;;;;6.15;3.00;;;;;;;33.00;36.10;101460.63;6228196;28;20052;-69
2023/07/09 13:40:02;;;;;;;4.85;2.78;;;;;;;33.04;34.60;101465.44;6228125;28;20127;-69
2023/07/09 13:43:03;;;;;;;5.47;2.67;;;;;;;33.30;36.99;101469.16;6227674;28;20046;-70
2023/07/09 13:46:09;;;;;;;3.85;2.53;;;;;;;33.34;35.49;101464.97;6224107;28;20125;-69
2023/07/09 13:49:13;;;;;;;4.60;2.60;;;;;;;33.69;32.62;101459.16;6213101;28;20049;-70
2023/07/09 13:52:19;;;;;;;5.55;3.00;;;;;;;33.83;33.22;101458.03;6214715;28;20452;-69
2023/07/09 13:55:23;;;;;;;3.60;2.67;;;;;;;34.00;34.57;101461.13;6212039;28;20442;-69
2023/07/09 13:58:26;;;;;;;4.70;2.75;;;;;;;34.13;31.20;101463.75;6217270;28;20053;-69
2023/07/09 14:01:29;;;;;;;5.97;2.55;;;;;;;34.15;34.24;101458.91;6225635;28;20054;-69
2023/07/09 14:04:30;;;;;;;6.10;2.70;;;;;;;34.15;32.34;101455.34;6227716;28;20053;-69
2023/07/09 14:07:35;;;;;;;5.72;2.60;;;;;;;34.12;34.98;101453.91;6227413;28;20410;-69
2023/07/09 14:10:36;;;;;;;4.63;2.75;;;;;;;33.98;32.07;101449.59;6227150;28;20390;-69
2023/07/09 14:13:38;;;;;;;3.38;2.50;;;;;;;34.02;33.42;101446.22;6227245;28;20052;-69
2023/07/09 14:16:39;;;;;;;3.45;2.45;;;;;;;34.14;30.72;101457.25;6227537;28;20053;-69